7  °C
Temperature
5  °C
  Dewpoint
   Humidity
Temp | Dewpoint | Humidity
5  km/h
Wind Speed
3  mph
Wind Speed
3  kts
Wind Speed
220°
South West

Wind Speed
Clear
Conditions
Pressure 1046.92 (hPa) - 30.92 (in)
Visibility 6.2 (mi) - 10.0 (km)

Current Conditions
EHRD
Location 6km (3.2mi)
Metar :EHRD 201125Z AUTO 22003KT 170V270 9999 NSC 07/05 Q1047 NOSIG
Mon 20th January 13:25 pm

Airport
  Metar Aviation API Data Provided by https://www.checkwx.com/ CSS/SVG/PHP scripts by weather34.com © 2015-2020